This is the latest recevied weather packets stored in our database for station/object IZ8GMP-13. If no packets are shown the sender has not sent any weather packets the latest 10 day(s).
| Time | Temp. | Humidity | Pressure | Rain* | Wind** | Luminosity | Snow |
|---|---|---|---|---|---|---|---|
| 1777451244 | 21.67° C | 59% | 1016.7 hPa | - | - | - | - |
| 1777450041 | 22.22° C | 58% | 1016.6 hPa | - | - | - | - |
| 1777448837 | 22.22° C | 57% | 1016.5 hPa | - | - | - | - |
| 1777447634 | 21.67° C | 57% | 1016.3 hPa | - | - | - | - |
| 1777446431 | 21.67° C | 59% | 1016 hPa | - | - | - | - |
| 1777446430 | 21.67° C | 59% | 1016 hPa | - | - | - | - |
| 1777445227 | 21.11° C | 60% | 1016 hPa | - | - | - | - |
| 1777444023 | 20.56° C | 61% | 1016 hPa | - | - | - | - |
| 1777442820 | 20° C | 61% | 1015.9 hPa | - | - | - | - |
| 1777441617 | 18.33° C | 62% | 1015.8 hPa | - | - | - | - |
| 1777440413 | 17.78° C | 62% | 1015.8 hPa | - | - | - | - |
| 1777439210 | 17.22° C | 60% | 1015.9 hPa | - | - | - | - |
| 1777438006 | 16.67° C | 65% | 1015.6 hPa | - | - | - | - |
| 1777430785 | 16.67° C | 59% | 1015.8 hPa | - | - | - | - |
| 1777429582 | 16.67° C | 57% | 1015.6 hPa | - | - | - | - |
| 1777428378 | 16.67° C | 56% | 1015.8 hPa | - | - | - | - |
| 1777427175 | 16.67° C | 60% | 1015.7 hPa | - | - | - | - |
| 1777425971 | 16.67° C | 61% | 1015.8 hPa | - | - | - | - |
| 1777424768 | 16.67° C | 58% | 1015.9 hPa | - | - | - | - |
| 1777423565 | 16.67° C | 64% | 1015.9 hPa | - | - | - | - |
| 1777422361 | 16.67° C | 62% | 1016.1 hPa | - | - | - | - |
| 1777419954 | 16.67° C | 59% | 1016.3 hPa | - | - | - | - |
| 1777418751 | 16.67° C | 58% | 1016.5 hPa | - | - | - | - |
| 1777416344 | 17.22° C | 53% | 1016.7 hPa | - | - | - | - |
| 1777415140 | 17.22° C | 52% | 1016.7 hPa | - | - | - | - |
* Rain since midnight (hover to see other rain measurements)
** Current wind speed in m/s (hover to see current wind gust speed)